sensor_id;sensor_type;location;lat;lon;timestamp;pressure;altitude;pressure_sealevel;temperature;humidity
7730;BME280;3908;52.310;7.230;2024-02-21T00:01:48;51743.69;;;-145.83;89.98
7730;BME280;3908;52.310;7.230;2024-02-21T07:06:51;51778.91;;;-145.83;90.94
7730;BME280;3908;52.310;7.230;2024-02-21T07:09:38;51812.16;;;-145.83;90.58
7730;BME280;3908;52.310;7.230;2024-02-21T07:16:06;51810.22;;;-145.83;89.96
7730;BME280;3908;52.310;7.230;2024-02-21T07:18:54;51769.13;;;-145.83;89.56
7730;BME280;3908;52.310;7.230;2024-02-21T07:26:53;51796.53;;;-145.83;89.54
7730;BME280;3908;52.310;7.230;2024-02-21T07:29:31;51782.81;;;-145.83;89.47
7730;BME280;3908;52.310;7.230;2024-02-21T07:32:18;51765.22;;;-145.83;89.40
7730;BME280;3908;52.310;7.230;2024-02-21T07:42:57;51802.38;;;-145.83;88.71
7730;BME280;3908;52.310;7.230;2024-02-21T07:53:29;51796.53;;;-145.83;88.33
7730;BME280;3908;52.310;7.230;2024-02-21T07:56:16;51780.88;;;-145.83;87.66
7730;BME280;3908;52.310;7.230;2024-02-21T07:59:05;51773.03;;;-145.83;88.04
7730;BME280;3908;52.310;7.230;2024-02-21T08:01:56;51784.78;;;-145.83;87.15
7730;BME280;3908;52.310;7.230;2024-02-21T08:04:43;51800.44;;;-145.83;87.06
7730;BME280;3908;52.310;7.230;2024-02-21T08:07:30;51753.47;;;-145.83;86.77
7730;BME280;3908;52.310;7.230;2024-02-21T08:10:17;51775.00;;;-145.83;86.42
7730;BME280;3908;52.310;7.230;2024-02-21T08:13:04;51827.81;;;-145.83;86.29
7730;BME280;3908;52.310;7.230;2024-02-21T08:15:53;51790.66;;;-145.83;86.60
7730;BME280;3908;52.310;7.230;2024-02-21T08:18:40;51784.78;;;-145.83;85.81
7730;BME280;3908;52.310;7.230;2024-02-21T08:21:29;51776.94;;;-145.83;86.13
7730;BME280;3908;52.310;7.230;2024-02-21T08:24:16;51808.25;;;-145.83;85.74
7730;BME280;3908;52.310;7.230;2024-02-21T08:27:04;51810.22;;;-145.83;85.83
7730;BME280;3908;52.310;7.230;2024-02-21T08:29:51;51775.00;;;-145.83;85.54
7730;BME280;3908;52.310;7.230;2024-02-21T08:32:40;51798.47;;;-145.83;85.29
7730;BME280;3908;52.310;7.230;2024-02-21T08:35:27;51825.88;;;-145.83;85.28
7730;BME280;3908;52.310;7.230;2024-02-21T08:38:11;51806.31;;;-145.83;84.86
7730;BME280;3908;52.310;7.230;2024-02-21T08:40:58;51808.25;;;-145.83;84.58
7730;BME280;3908;52.310;7.230;2024-02-21T08:43:45;51775.00;;;-145.83;84.25
7730;BME280;3908;52.310;7.230;2024-02-21T08:46:32;51759.34;;;-145.83;83.58
7730;BME280;3908;52.310;7.230;2024-02-21T08:49:21;51769.13;;;-145.83;83.70
7730;BME280;3908;52.310;7.230;2024-02-21T08:52:08;51820.00;;;-145.83;83.63
7730;BME280;3908;52.310;7.230;2024-02-21T08:57:31;51790.66;;;-145.83;82.98
7730;BME280;3908;52.310;7.230;2024-02-21T09:00:22;51802.38;;;-145.83;83.23
7730;BME280;3908;52.310;7.230;2024-02-21T09:03:12;51767.16;;;-145.83;82.93
7730;BME280;3908;52.310;7.230;2024-02-21T09:06:01;51767.16;;;-145.83;81.95
7730;BME280;3908;52.310;7.230;2024-02-21T09:16:22;51827.81;;;-145.83;81.37
7730;BME280;3908;52.310;7.230;2024-02-21T09:19:09;51802.38;;;-145.83;80.60
7730;BME280;3908;52.310;7.230;2024-02-21T09:21:58;51806.31;;;-145.83;80.75
7730;BME280;3908;52.310;7.230;2024-02-21T09:24:45;51778.91;;;-145.83;80.23
7730;BME280;3908;52.310;7.230;2024-02-21T09:45:43;51782.81;;;-145.83;78.04
7730;BME280;3908;52.310;7.230;2024-02-21T09:48:44;51778.91;;;-145.83;77.93
7730;BME280;3908;52.310;7.230;2024-02-21T09:51:38;51814.13;;;-145.83;78.40
7730;BME280;3908;52.310;7.230;2024-02-21T09:54:30;51821.94;;;-145.83;78.06
7730;BME280;3908;52.310;7.230;2024-02-21T09:57:18;51806.31;;;-145.83;78.33
7730;BME280;3908;52.310;7.230;2024-02-21T10:00:06;51820.00;;;-145.83;78.66
7730;BME280;3908;52.310;7.230;2024-02-21T10:02:55;51771.09;;;-145.83;79.08
7730;BME280;3908;52.310;7.230;2024-02-21T10:10:55;51792.59;;;-145.83;78.54
7730;BME280;3908;52.310;7.230;2024-02-21T10:13:45;51812.16;;;-145.83;78.48
7730;BME280;3908;52.310;7.230;2024-02-21T10:52:51;51773.03;;;-145.83;76.29
7730;BME280;3908;52.310;7.230;2024-02-21T10:55:49;51814.13;;;-145.83;75.29
7730;BME280;3908;52.310;7.230;2024-02-21T10:58:37;51814.13;;;-145.83;75.05
7730;BME280;3908;52.310;7.230;2024-02-21T11:01:26;51814.13;;;-145.83;75.20
7730;BME280;3908;52.310;7.230;2024-02-21T11:04:15;51796.53;;;-145.83;75.56
7730;BME280;3908;52.310;7.230;2024-02-21T11:07:03;51818.03;;;-145.83;75.80
7730;BME280;3908;52.310;7.230;2024-02-21T11:09:53;51798.47;;;-145.83;75.13
7730;BME280;3908;52.310;7.230;2024-02-21T11:12:41;51821.94;;;-145.83;75.39
7730;BME280;3908;52.310;7.230;2024-02-21T11:15:28;51802.38;;;-145.83;75.26
7730;BME280;3908;52.310;7.230;2024-02-21T11:18:23;51808.25;;;-145.83;73.95
7730;BME280;3908;52.310;7.230;2024-02-21T11:21:10;51841.53;;;-145.83;75.07
7730;BME280;3908;52.310;7.230;2024-02-21T11:23:57;51784.78;;;-145.83;74.61
7730;BME280;3908;52.310;7.230;2024-02-21T11:26:48;51786.72;;;-145.83;74.66
7730;BME280;3908;52.310;7.230;2024-02-21T11:29:40;51835.66;;;-145.83;73.52
7730;BME280;3908;52.310;7.230;2024-02-21T11:32:28;51778.91;;;-145.83;74.22
7730;BME280;3908;52.310;7.230;2024-02-21T11:35:19;51751.53;;;-145.83;73.79
7730;BME280;3908;52.310;7.230;2024-02-21T11:38:09;51786.72;;;-145.83;73.92
7730;BME280;3908;52.310;7.230;2024-02-21T11:40:58;51806.31;;;-145.83;74.14
7730;BME280;3908;52.310;7.230;2024-02-21T11:43:48;51792.59;;;-145.83;74.59
7730;BME280;3908;52.310;7.230;2024-02-21T11:46:36;51784.78;;;-145.83;74.88
7730;BME280;3908;52.310;7.230;2024-02-21T11:49:25;51802.38;;;-145.83;75.53
7730;BME280;3908;52.310;7.230;2024-02-21T11:52:12;51802.38;;;-145.83;75.52
7730;BME280;3908;52.310;7.230;2024-02-21T11:55:01;51800.44;;;-145.83;75.54
7730;BME280;3908;52.310;7.230;2024-02-21T11:57:50;51786.72;;;-145.83;75.82
7730;BME280;3908;52.310;7.230;2024-02-21T12:00:39;51782.81;;;-145.83;76.33
7730;BME280;3908;52.310;7.230;2024-02-21T12:03:27;51823.91;;;-145.83;76.80
7730;BME280;3908;52.310;7.230;2024-02-21T12:06:15;51784.78;;;-145.83;76.93
7730;BME280;3908;52.310;7.230;2024-02-21T12:09:07;51769.13;;;-145.83;77.68
7730;BME280;3908;52.310;7.230;2024-02-21T12:11:57;51798.47;;;-145.83;77.93
7730;BME280;3908;52.310;7.230;2024-02-21T12:14:45;51810.22;;;-145.83;79.08
7730;BME280;3908;52.310;7.230;2024-02-21T12:17:34;51802.38;;;-145.83;78.76
7730;BME280;3908;52.310;7.230;2024-02-21T12:20:21;51784.78;;;-145.83;78.71
7730;BME280;3908;52.310;7.230;2024-02-21T12:23:11;51784.78;;;-145.83;79.41
7730;BME280;3908;52.310;7.230;2024-02-21T12:27:50;51792.59;;;-145.83;79.14
7730;BME280;3908;52.310;7.230;2024-02-21T12:29:37;51771.09;;;-145.83;79.49
7730;BME280;3908;52.310;7.230;2024-02-21T12:32:24;51763.25;;;-145.83;79.38
7730;BME280;3908;52.310;7.230;2024-02-21T12:35:13;51810.22;;;-145.83;79.25
7730;BME280;3908;52.310;7.230;2024-02-21T12:38:00;51776.94;;;-145.83;78.94
7730;BME280;3908;52.310;7.230;2024-02-21T12:40:47;51773.03;;;-145.83;77.87
7730;BME280;3908;52.310;7.230;2024-02-21T12:43:34;51808.25;;;-145.83;77.42
7730;BME280;3908;52.310;7.230;2024-02-21T12:46:22;51778.91;;;-145.83;76.73
7730;BME280;3908;52.310;7.230;2024-02-21T12:49:10;51763.25;;;-145.83;76.33
7730;BME280;3908;52.310;7.230;2024-02-21T12:51:59;51784.78;;;-145.83;76.15
7730;BME280;3908;52.310;7.230;2024-02-21T12:54:46;51818.03;;;-145.83;75.59
7730;BME280;3908;52.310;7.230;2024-02-21T12:57:33;51800.44;;;-145.83;75.56
7730;BME280;3908;52.310;7.230;2024-02-21T13:00:21;51814.13;;;-145.83;75.91
7730;BME280;3908;52.310;7.230;2024-02-21T13:05:47;51827.81;;;-145.83;74.14
7730;BME280;3908;52.310;7.230;2024-02-21T13:08:36;51786.72;;;-145.83;74.56
7730;BME280;3908;52.310;7.230;2024-02-21T13:11:23;51790.66;;;-145.83;74.91
7730;BME280;3908;52.310;7.230;2024-02-21T13:14:12;51767.16;;;-145.83;75.18
7730;BME280;3908;52.310;7.230;2024-02-21T13:16:59;51821.94;;;-145.83;75.54
7730;BME280;3908;52.310;7.230;2024-02-21T13:19:46;51753.47;;;-145.83;75.23
7730;BME280;3908;52.310;7.230;2024-02-21T13:22:33;51735.88;;;-145.83;75.59
7730;BME280;3908;52.310;7.230;2024-02-21T13:25:22;51800.44;;;-145.83;75.13
7730;BME280;3908;52.310;7.230;2024-02-21T13:28:09;51796.53;;;-145.83;75.70
7730;BME280;3908;52.310;7.230;2024-02-21T13:30:56;51800.44;;;-145.83;75.48
7730;BME280;3908;52.310;7.230;2024-02-21T13:33:45;51792.59;;;-145.83;74.60
7730;BME280;3908;52.310;7.230;2024-02-21T13:36:32;51802.38;;;-145.83;74.71
7730;BME280;3908;52.310;7.230;2024-02-21T13:39:19;51818.03;;;-145.83;74.46
7730;BME280;3908;52.310;7.230;2024-02-21T13:42:08;51798.47;;;-145.83;73.53
7730;BME280;3908;52.310;7.230;2024-02-21T13:44:55;51810.22;;;-145.83;73.19
7730;BME280;3908;52.310;7.230;2024-02-21T13:47:42;51778.91;;;-145.83;72.93
7730;BME280;3908;52.310;7.230;2024-02-21T13:50:30;51767.16;;;-145.83;71.80
7730;BME280;3908;52.310;7.230;2024-02-21T13:53:18;51778.91;;;-145.83;71.95
7730;BME280;3908;52.310;7.230;2024-02-21T13:56:06;51810.22;;;-145.83;72.77
7730;BME280;3908;52.310;7.230;2024-02-21T13:58:57;51835.66;;;-145.83;71.74
7730;BME280;3908;52.310;7.230;2024-02-21T14:01:45;51820.00;;;-145.83;71.29
7730;BME280;3908;52.310;7.230;2024-02-21T14:09:43;51786.72;;;-145.83;70.72
7730;BME280;3908;52.310;7.230;2024-02-21T14:12:30;51780.88;;;-145.83;71.58
7730;BME280;3908;52.310;7.230;2024-02-21T14:15:19;51802.38;;;-145.83;71.12
7730;BME280;3908;52.310;7.230;2024-02-21T14:18:06;51784.78;;;-145.83;70.41
7730;BME280;3908;52.310;7.230;2024-02-21T14:20:55;51759.34;;;-145.83;71.15
7730;BME280;3908;52.310;7.230;2024-02-21T14:23:42;51780.88;;;-145.83;71.52
7730;BME280;3908;52.310;7.230;2024-02-21T14:26:30;51796.53;;;-145.83;70.90
7730;BME280;3908;52.310;7.230;2024-02-21T14:29:17;51786.72;;;-145.83;71.08
7730;BME280;3908;52.310;7.230;2024-02-21T14:32:06;51788.69;;;-145.83;71.84
7730;BME280;3908;52.310;7.230;2024-02-21T14:34:55;51794.56;;;-145.83;70.56
7730;BME280;3908;52.310;7.230;2024-02-21T14:37:43;51790.66;;;-145.83;70.26
7730;BME280;3908;52.310;7.230;2024-02-21T14:40:31;51820.00;;;-145.83;69.56
7730;BME280;3908;52.310;7.230;2024-02-21T14:43:19;51769.13;;;-145.83;70.19
7730;BME280;3908;52.310;7.230;2024-02-21T14:46:08;51806.31;;;-145.83;71.29
7730;BME280;3908;52.310;7.230;2024-02-21T14:48:57;51763.25;;;-145.83;69.97
7730;BME280;3908;52.310;7.230;2024-02-21T14:51:44;51778.91;;;-145.83;70.49
7730;BME280;3908;52.310;7.230;2024-02-21T14:54:31;51794.56;;;-145.83;69.81
7730;BME280;3908;52.310;7.230;2024-02-21T14:57:20;51771.09;;;-145.83;70.05
7730;BME280;3908;52.310;7.230;2024-02-21T15:00:08;51776.94;;;-145.83;69.59
7730;BME280;3908;52.310;7.230;2024-02-21T15:02:56;51775.00;;;-145.83;69.40
7730;BME280;3908;52.310;7.230;2024-02-21T15:05:45;51798.47;;;-145.83;69.15
7730;BME280;3908;52.310;7.230;2024-02-21T15:08:32;51800.44;;;-145.83;69.47
7730;BME280;3908;52.310;7.230;2024-02-21T15:11:19;51778.91;;;-145.83;69.05
7730;BME280;3908;52.310;7.230;2024-02-21T15:14:07;51780.88;;;-145.83;69.41
7730;BME280;3908;52.310;7.230;2024-02-21T15:16:55;51771.09;;;-145.83;69.39
7730;BME280;3908;52.310;7.230;2024-02-21T15:19:42;51794.56;;;-145.83;69.36
7730;BME280;3908;52.310;7.230;2024-02-21T15:22:31;51775.00;;;-145.83;69.17
7730;BME280;3908;52.310;7.230;2024-02-21T15:25:18;51767.16;;;-145.83;69.49
7730;BME280;3908;52.310;7.230;2024-02-21T15:28:05;51798.47;;;-145.83;70.07
7730;BME280;3908;52.310;7.230;2024-02-21T15:30:53;51806.31;;;-145.83;69.67
7730;BME280;3908;52.310;7.230;2024-02-21T15:33:40;51780.88;;;-145.83;70.38
7730;BME280;3908;52.310;7.230;2024-02-21T15:36:27;51784.78;;;-145.83;69.89
7730;BME280;3908;52.310;7.230;2024-02-21T15:39:16;51776.94;;;-145.83;70.18
7730;BME280;3908;52.310;7.230;2024-02-21T15:42:05;51753.47;;;-145.83;69.97
7730;BME280;3908;52.310;7.230;2024-02-21T15:44:52;51798.47;;;-145.83;70.09
7730;BME280;3908;52.310;7.230;2024-02-21T15:47:39;51769.13;;;-145.83;70.02
7730;BME280;3908;52.310;7.230;2024-02-21T15:50:27;51763.25;;;-145.83;69.73
7730;BME280;3908;52.310;7.230;2024-02-21T15:53:15;51775.00;;;-145.83;69.94
7730;BME280;3908;52.310;7.230;2024-02-21T15:56:04;51757.38;;;-145.83;70.16
7730;BME280;3908;52.310;7.230;2024-02-21T15:58:53;51790.66;;;-145.83;70.26
7730;BME280;3908;52.310;7.230;2024-02-21T16:01:41;51788.69;;;-145.83;69.21
7730;BME280;3908;52.310;7.230;2024-02-21T16:04:28;51778.91;;;-145.83;68.61
7730;BME280;3908;52.310;7.230;2024-02-21T16:07:17;51761.31;;;-145.83;69.38
7730;BME280;3908;52.310;7.230;2024-02-21T16:10:05;51761.31;;;-145.83;69.25
7730;BME280;3908;52.310;7.230;2024-02-21T16:12:55;51771.09;;;-145.83;69.59
7730;BME280;3908;52.310;7.230;2024-02-21T16:15:44;51737.81;;;-145.83;69.28
7730;BME280;3908;52.310;7.230;2024-02-21T16:18:32;51782.81;;;-145.83;69.83
7730;BME280;3908;52.310;7.230;2024-02-21T16:21:19;51765.22;;;-145.83;69.51
7730;BME280;3908;52.310;7.230;2024-02-21T16:24:07;51765.22;;;-145.83;69.19
7730;BME280;3908;52.310;7.230;2024-02-21T16:26:54;51812.16;;;-145.83;68.73
7730;BME280;3908;52.310;7.230;2024-02-21T16:29:43;51808.25;;;-145.83;69.48
7730;BME280;3908;52.310;7.230;2024-02-21T16:32:30;51780.88;;;-145.83;68.75
7730;BME280;3908;52.310;7.230;2024-02-21T16:35:17;51792.59;;;-145.83;68.46
7730;BME280;3908;52.310;7.230;2024-02-21T16:38:05;51761.31;;;-145.83;68.35
7730;BME280;3908;52.310;7.230;2024-02-21T16:40:52;51753.47;;;-145.83;68.33
7730;BME280;3908;52.310;7.230;2024-02-21T16:43:39;51782.81;;;-145.83;68.81
7730;BME280;3908;52.310;7.230;2024-02-21T16:46:28;51786.72;;;-145.83;69.11
7730;BME280;3908;52.310;7.230;2024-02-21T16:49:15;51763.25;;;-145.83;70.37
7730;BME280;3908;52.310;7.230;2024-02-21T16:52:03;51761.31;;;-145.83;70.48
7730;BME280;3908;52.310;7.230;2024-02-21T16:54:51;51784.78;;;-145.83;71.62
7730;BME280;3908;52.310;7.230;2024-02-21T16:57:38;51765.22;;;-145.83;71.87
7730;BME280;3908;52.310;7.230;2024-02-21T17:00:25;51780.88;;;-145.83;72.34
7730;BME280;3908;52.310;7.230;2024-02-21T17:03:14;51796.53;;;-145.83;72.30
7730;BME280;3908;52.310;7.230;2024-02-21T17:06:05;51780.88;;;-145.83;72.95
7730;BME280;3908;52.310;7.230;2024-02-21T17:08:52;51773.03;;;-145.83;73.53
7730;BME280;3908;52.310;7.230;2024-02-21T17:11:41;51776.94;;;-145.83;73.70
7730;BME280;3908;52.310;7.230;2024-02-21T17:14:28;51767.16;;;-145.83;75.20
7730;BME280;3908;52.310;7.230;2024-02-21T17:17:15;51773.03;;;-145.83;75.64
7730;BME280;3908;52.310;7.230;2024-02-21T17:20:04;51776.94;;;-145.83;76.22
7730;BME280;3908;52.310;7.230;2024-02-21T17:22:53;51773.03;;;-145.83;76.83
7730;BME280;3908;52.310;7.230;2024-02-21T17:25:41;51737.81;;;-145.83;77.71
7730;BME280;3908;52.310;7.230;2024-02-21T17:28:28;51771.09;;;-145.83;78.09
7730;BME280;3908;52.310;7.230;2024-02-21T17:31:15;51784.78;;;-145.83;78.72
7730;BME280;3908;52.310;7.230;2024-02-21T17:34:02;51751.53;;;-145.83;79.27
7730;BME280;3908;52.310;7.230;2024-02-21T17:36:51;51759.34;;;-145.83;80.08
7730;BME280;3908;52.310;7.230;2024-02-21T17:39:38;51788.69;;;-145.83;80.21
7730;BME280;3908;52.310;7.230;2024-02-21T17:42:25;51778.91;;;-145.83;80.64
7730;BME280;3908;52.310;7.230;2024-02-21T17:45:13;51743.69;;;-145.83;81.50
7730;BME280;3908;52.310;7.230;2024-02-21T17:48:00;51755.44;;;-145.83;81.85
7730;BME280;3908;52.310;7.230;2024-02-21T17:50:47;51769.13;;;-145.83;82.08
7730;BME280;3908;52.310;7.230;2024-02-21T17:53:35;51769.13;;;-145.83;82.08
7730;BME280;3908;52.310;7.230;2024-02-21T17:56:22;51747.59;;;-145.83;81.56
7730;BME280;3908;52.310;7.230;2024-02-21T17:59:10;51794.56;;;-145.83;82.20
7730;BME280;3908;52.310;7.230;2024-02-21T18:01:58;51796.53;;;-145.83;82.82
7730;BME280;3908;52.310;7.230;2024-02-21T18:04:45;51753.47;;;-145.83;82.97
7730;BME280;3908;52.310;7.230;2024-02-21T18:07:33;51784.78;;;-145.83;83.52
7730;BME280;3908;52.310;7.230;2024-02-21T18:10:21;51726.09;;;-145.83;83.77
7730;BME280;3908;52.310;7.230;2024-02-21T18:13:08;51775.00;;;-145.83;84.64
7730;BME280;3908;52.310;7.230;2024-02-21T18:15:58;51784.78;;;-145.83;85.11
7730;BME280;3908;52.310;7.230;2024-02-21T18:18:45;51794.56;;;-145.83;85.59
7730;BME280;3908;52.310;7.230;2024-02-21T18:21:32;51716.31;;;-145.83;86.21
7730;BME280;3908;52.310;7.230;2024-02-21T18:24:20;51765.22;;;-145.83;86.77
7730;BME280;3908;52.310;7.230;2024-02-21T18:27:09;51780.88;;;-145.83;87.63
7730;BME280;3908;52.310;7.230;2024-02-21T18:29:56;51763.25;;;-145.83;87.90
7730;BME280;3908;52.310;7.230;2024-02-21T18:32:43;51739.78;;;-145.83;88.75
7730;BME280;3908;52.310;7.230;2024-02-21T18:35:30;51769.13;;;-145.83;89.06
7730;BME280;3908;52.310;7.230;2024-02-21T18:38:17;51763.25;;;-145.83;89.35
7730;BME280;3908;52.310;7.230;2024-02-21T18:41:05;51771.09;;;-145.83;90.46
7730;BME280;3908;52.310;7.230;2024-02-21T18:43:55;51765.22;;;-145.83;90.67
7730;BME280;3908;52.310;7.230;2024-02-21T18:46:42;51765.22;;;-145.83;91.17
7730;BME280;3908;52.310;7.230;2024-02-21T18:49:30;51798.47;;;-145.83;91.58
7730;BME280;3908;52.310;7.230;2024-02-21T18:52:17;51776.94;;;-145.83;92.20
7730;BME280;3908;52.310;7.230;2024-02-21T18:55:05;51767.16;;;-145.83;92.62
7730;BME280;3908;52.310;7.230;2024-02-21T18:57:54;51778.91;;;-145.83;93.12
7730;BME280;3908;52.310;7.230;2024-02-21T19:00:43;51733.91;;;-145.83;93.24
7730;BME280;3908;52.310;7.230;2024-02-21T19:03:30;51769.13;;;-145.83;93.17
7730;BME280;3908;52.310;7.230;2024-02-21T19:06:17;51794.56;;;-145.83;93.08
7730;BME280;3908;52.310;7.230;2024-02-21T19:09:05;51761.31;;;-145.83;92.87
7730;BME280;3908;52.310;7.230;2024-02-21T19:11:52;51747.59;;;-145.83;92.88
7730;BME280;3908;52.310;7.230;2024-02-21T19:14:39;51780.88;;;-145.83;93.06
7730;BME280;3908;52.310;7.230;2024-02-21T19:17:28;51792.59;;;-145.83;92.82
7730;BME280;3908;52.310;7.230;2024-02-21T19:20:15;51794.56;;;-145.83;93.77
7730;BME280;3908;52.310;7.230;2024-02-21T19:23:03;51765.22;;;-145.83;93.21
7730;BME280;3908;52.310;7.230;2024-02-21T19:25:50;51786.72;;;-145.83;93.32
7730;BME280;3908;52.310;7.230;2024-02-21T19:28:37;51743.69;;;-145.83;93.75
7730;BME280;3908;52.310;7.230;2024-02-21T19:31:25;51778.91;;;-145.83;93.65
7730;BME280;3908;52.310;7.230;2024-02-21T19:34:14;51796.53;;;-145.83;93.69
7730;BME280;3908;52.310;7.230;2024-02-21T19:37:02;51757.38;;;-145.83;93.92
7730;BME280;3908;52.310;7.230;2024-02-21T19:39:49;51767.16;;;-145.83;94.06
7730;BME280;3908;52.310;7.230;2024-02-21T19:42:36;51782.81;;;-145.83;94.09
7730;BME280;3908;52.310;7.230;2024-02-21T19:45:23;51767.16;;;-145.83;94.27
7730;BME280;3908;52.310;7.230;2024-02-21T19:48:11;51755.44;;;-145.83;94.40
7730;BME280;3908;52.310;7.230;2024-02-21T19:50:59;51767.16;;;-145.83;94.85
7730;BME280;3908;52.310;7.230;2024-02-21T19:53:49;51751.53;;;-145.83;95.14
7730;BME280;3908;52.310;7.230;2024-02-21T19:56:36;51765.22;;;-145.83;95.50
7730;BME280;3908;52.310;7.230;2024-02-21T19:59:23;51751.53;;;-145.83;95.27
7730;BME280;3908;52.310;7.230;2024-02-21T20:02:10;51751.53;;;-145.83;95.62
7730;BME280;3908;52.310;7.230;2024-02-21T20:04:57;51741.75;;;-145.83;96.04
7730;BME280;3908;52.310;7.230;2024-02-21T20:07:46;51782.81;;;-145.83;95.78
7730;BME280;3908;52.310;7.230;2024-02-21T20:10:33;51784.78;;;-145.83;96.06
7730;BME280;3908;52.310;7.230;2024-02-21T20:13:20;51778.91;;;-145.83;96.30
7730;BME280;3908;52.310;7.230;2024-02-21T20:16:07;51776.94;;;-145.83;95.91
7730;BME280;3908;52.310;7.230;2024-02-21T20:18:54;51726.09;;;-145.83;96.43
7730;BME280;3908;52.310;7.230;2024-02-21T20:21:43;51771.09;;;-145.83;96.75
7730;BME280;3908;52.310;7.230;2024-02-21T20:24:33;51776.94;;;-145.83;96.98
7730;BME280;3908;52.310;7.230;2024-02-21T20:27:20;51765.22;;;-145.83;96.62
7730;BME280;3908;52.310;7.230;2024-02-21T20:30:07;51786.72;;;-145.83;97.21
7730;BME280;3908;52.310;7.230;2024-02-21T20:32:55;51743.69;;;-145.83;97.64
7730;BME280;3908;52.310;7.230;2024-02-21T20:35:42;51753.47;;;-145.83;97.85
7730;BME280;3908;52.310;7.230;2024-02-21T20:38:29;51767.16;;;-145.83;97.91
7730;BME280;3908;52.310;7.230;2024-02-21T20:41:19;51763.25;;;-145.83;98.42
7730;BME280;3908;52.310;7.230;2024-02-21T20:44:06;51759.34;;;-145.83;98.37
7730;BME280;3908;52.310;7.230;2024-02-21T20:46:53;51771.09;;;-145.83;98.52
7730;BME280;3908;52.310;7.230;2024-02-21T20:49:40;51788.69;;;-145.83;98.98
7730;BME280;3908;52.310;7.230;2024-02-21T20:52:28;51784.78;;;-145.83;99.16
7730;BME280;3908;52.310;7.230;2024-02-21T20:55:15;51776.94;;;-145.83;99.52
7730;BME280;3908;52.310;7.230;2024-02-21T20:58:07;51786.72;;;-145.83;99.41
7730;BME280;3908;52.310;7.230;2024-02-21T21:00:54;51798.47;;;-145.83;99.57
7730;BME280;3908;52.310;7.230;2024-02-21T21:03:41;51769.13;;;-145.83;99.77
7730;BME280;3908;52.310;7.230;2024-02-21T21:06:29;51765.22;;;-145.83;99.59
7730;BME280;3908;52.310;7.230;2024-02-21T21:09:16;51730.00;;;-145.83;100.00
7730;BME280;3908;52.310;7.230;2024-02-21T21:12:05;51751.53;;;-145.83;100.00
7730;BME280;3908;52.310;7.230;2024-02-21T21:14:53;51776.94;;;-145.83;100.00
7730;BME280;3908;52.310;7.230;2024-02-21T21:17:40;51765.22;;;-145.83;100.00
7730;BME280;3908;52.310;7.230;2024-02-21T21:20:27;51776.94;;;-145.83;100.00
7730;BME280;3908;52.310;7.230;2024-02-21T21:23:15;51780.88;;;-145.83;100.00
7730;BME280;3908;52.310;7.230;2024-02-21T21:26:03;51769.13;;;-145.83;100.00
7730;BME280;3908;52.310;7.230;2024-02-21T21:28:50;51776.94;;;-145.83;100.00
7730;BME280;3908;52.310;7.230;2024-02-21T21:31:43;51759.34;;;-145.83;100.00
7730;BME280;3908;52.310;7.230;2024-02-21T21:34:31;51792.59;;;-145.83;100.00
7730;BME280;3908;52.310;7.230;2024-02-21T21:37:18;51784.78;;;-145.83;100.00
7730;BME280;3908;52.310;7.230;2024-02-21T21:40:07;51775.00;;;-145.83;100.00
7730;BME280;3908;52.310;7.230;2024-02-21T21:42:54;51757.38;;;-145.83;100.00
7730;BME280;3908;52.310;7.230;2024-02-21T21:45:41;51757.38;;;-145.83;100.00
7730;BME280;3908;52.310;7.230;2024-02-21T21:48:30;51763.25;;;-145.83;100.00
7730;BME280;3908;52.310;7.230;2024-02-21T21:51:19;51775.00;;;-145.83;100.00
7730;BME280;3908;52.310;7.230;2024-02-21T21:54:06;51749.56;;;-145.83;100.00
7730;BME280;3908;52.310;7.230;2024-02-21T21:56:53;51780.88;;;-145.83;100.00
7730;BME280;3908;52.310;7.230;2024-02-21T21:59:41;51794.56;;;-145.83;100.00
7730;BME280;3908;52.310;7.230;2024-02-21T22:02:28;51771.09;;;-145.83;100.00
7730;BME280;3908;52.310;7.230;2024-02-21T22:05:17;51757.38;;;-145.83;100.00
7730;BME280;3908;52.310;7.230;2024-02-21T22:08:04;51763.25;;;-145.83;100.00
7730;BME280;3908;52.310;7.230;2024-02-21T22:10:51;51784.78;;;-145.83;100.00
7730;BME280;3908;52.310;7.230;2024-02-21T22:13:39;51798.47;;;-145.83;100.00
7730;BME280;3908;52.310;7.230;2024-02-21T22:16:26;51735.88;;;-145.83;100.00
7730;BME280;3908;52.310;7.230;2024-02-21T22:19:14;51735.88;;;-145.83;100.00
7730;BME280;3908;52.310;7.230;2024-02-21T22:22:03;51728.03;;;-145.83;100.00
7730;BME280;3908;52.310;7.230;2024-02-21T22:24:50;51784.78;;;-145.83;100.00
7730;BME280;3908;52.310;7.230;2024-02-21T22:27:37;51782.81;;;-145.83;100.00
7730;BME280;3908;52.310;7.230;2024-02-21T22:30:24;51763.25;;;-145.83;100.00
7730;BME280;3908;52.310;7.230;2024-02-21T22:33:12;51757.38;;;-145.83;100.00
7730;BME280;3908;52.310;7.230;2024-02-21T22:35:59;51771.09;;;-145.83;100.00
7730;BME280;3908;52.310;7.230;2024-02-21T22:38:47;51792.59;;;-145.83;100.00
7730;BME280;3908;52.310;7.230;2024-02-21T22:41:34;51751.53;;;-145.83;100.00
7730;BME280;3908;52.310;7.230;2024-02-21T22:44:21;51776.94;;;-145.83;100.00
7730;BME280;3908;52.310;7.230;2024-02-21T22:47:08;51755.44;;;-145.83;100.00
7730;BME280;3908;52.310;7.230;2024-02-21T22:49:55;51751.53;;;-145.83;100.00
7730;BME280;3908;52.310;7.230;2024-02-21T22:52:42;51800.44;;;-145.83;100.00
7730;BME280;3908;52.310;7.230;2024-02-21T22:55:31;51786.72;;;-145.83;100.00
7730;BME280;3908;52.310;7.230;2024-02-21T22:58:18;51820.00;;;-145.83;100.00
7730;BME280;3908;52.310;7.230;2024-02-21T23:01:09;51769.13;;;-145.83;100.00
7730;BME280;3908;52.310;7.230;2024-02-21T23:03:56;51763.25;;;-145.83;100.00
7730;BME280;3908;52.310;7.230;2024-02-21T23:06:44;51765.22;;;-145.83;100.00
7730;BME280;3908;52.310;7.230;2024-02-21T23:09:31;51784.78;;;-145.83;100.00
7730;BME280;3908;52.310;7.230;2024-02-21T23:12:20;51767.16;;;-145.83;100.00
7730;BME280;3908;52.310;7.230;2024-02-21T23:15:08;51796.53;;;-145.83;100.00
7730;BME280;3908;52.310;7.230;2024-02-21T23:17:56;51778.91;;;-145.83;100.00
7730;BME280;3908;52.310;7.230;2024-02-21T23:20:43;51771.09;;;-145.83;100.00
7730;BME280;3908;52.310;7.230;2024-02-21T23:23:30;51780.88;;;-145.83;100.00
7730;BME280;3908;52.310;7.230;2024-02-21T23:26:25;51775.00;;;-145.83;100.00
7730;BME280;3908;52.310;7.230;2024-02-21T23:29:14;51812.16;;;-145.83;100.00
7730;BME280;3908;52.310;7.230;2024-02-21T23:32:01;51749.56;;;-145.83;100.00